sensor_id;sensor_type;location;lat;lon;timestamp;temperature;humidity
14138;DHT22;8199;51.310;9.466;2024-01-11T00:00:29;24.00;40.40
14138;DHT22;8199;51.310;9.466;2024-01-11T00:02:55;24.10;40.40
14138;DHT22;8199;51.310;9.466;2024-01-11T00:05:20;24.10;40.40
14138;DHT22;8199;51.310;9.466;2024-01-11T00:07:46;24.00;40.60
14138;DHT22;8199;51.310;9.466;2024-01-11T00:10:12;24.00;40.50
14138;DHT22;8199;51.310;9.466;2024-01-11T00:12:37;24.00;40.50
14138;DHT22;8199;51.310;9.466;2024-01-11T00:15:03;23.80;40.60
14138;DHT22;8199;51.310;9.466;2024-01-11T00:17:29;23.90;40.60
14138;DHT22;8199;51.310;9.466;2024-01-11T00:19:54;23.90;40.50
14138;DHT22;8199;51.310;9.466;2024-01-11T00:22:20;23.90;40.50
14138;DHT22;8199;51.310;9.466;2024-01-11T00:24:46;23.80;40.50
14138;DHT22;8199;51.310;9.466;2024-01-11T00:27:11;23.70;40.70
14138;DHT22;8199;51.310;9.466;2024-01-11T00:29:37;23.70;40.80
14138;DHT22;8199;51.310;9.466;2024-01-11T00:32:02;23.70;40.80
14138;DHT22;8199;51.310;9.466;2024-01-11T00:34:28;23.70;40.80
14138;DHT22;8199;51.310;9.466;2024-01-11T00:36:54;23.80;40.90
14138;DHT22;8199;51.310;9.466;2024-01-11T00:39:19;23.70;40.80
14138;DHT22;8199;51.310;9.466;2024-01-11T00:41:45;23.80;40.90
14138;DHT22;8199;51.310;9.466;2024-01-11T00:44:10;23.90;40.80
14138;DHT22;8199;51.310;9.466;2024-01-11T00:46:36;23.90;40.70
14138;DHT22;8199;51.310;9.466;2024-01-11T00:49:03;24.00;40.80
14138;DHT22;8199;51.310;9.466;2024-01-11T00:51:29;24.00;40.70
14138;DHT22;8199;51.310;9.466;2024-01-11T00:53:55;24.00;40.70
14138;DHT22;8199;51.310;9.466;2024-01-11T00:56:21;23.90;40.70
14138;DHT22;8199;51.310;9.466;2024-01-11T00:58:46;23.90;40.70
14138;DHT22;8199;51.310;9.466;2024-01-11T01:01:12;23.90;40.70
14138;DHT22;8199;51.310;9.466;2024-01-11T01:03:39;23.90;40.70
14138;DHT22;8199;51.310;9.466;2024-01-11T01:06:04;23.90;41.30
14138;DHT22;8199;51.310;9.466;2024-01-11T01:08:30;23.90;40.80
14138;DHT22;8199;51.310;9.466;2024-01-11T01:10:56;23.90;40.80
14138;DHT22;8199;51.310;9.466;2024-01-11T01:13:21;23.90;40.80
14138;DHT22;8199;51.310;9.466;2024-01-11T01:15:47;23.80;41.00
14138;DHT22;8199;51.310;9.466;2024-01-11T01:18:12;23.80;41.10
14138;DHT22;8199;51.310;9.466;2024-01-11T01:20:38;23.80;41.10
14138;DHT22;8199;51.310;9.466;2024-01-11T01:23:04;23.80;41.00
14138;DHT22;8199;51.310;9.466;2024-01-11T01:25:29;23.80;41.00
14138;DHT22;8199;51.310;9.466;2024-01-11T01:27:55;23.80;41.10
14138;DHT22;8199;51.310;9.466;2024-01-11T01:30:22;23.80;41.00
14138;DHT22;8199;51.310;9.466;2024-01-11T01:32:48;23.80;41.00
14138;DHT22;8199;51.310;9.466;2024-01-11T01:35:14;23.80;41.00
14138;DHT22;8199;51.310;9.466;2024-01-11T01:37:39;23.80;40.90
14138;DHT22;8199;51.310;9.466;2024-01-11T01:40:05;23.70;41.00
14138;DHT22;8199;51.310;9.466;2024-01-11T01:42:33;23.70;41.10
14138;DHT22;8199;51.310;9.466;2024-01-11T01:44:58;23.70;41.10
14138;DHT22;8199;51.310;9.466;2024-01-11T01:47:24;23.70;41.00
14138;DHT22;8199;51.310;9.466;2024-01-11T01:49:51;23.70;41.00
14138;DHT22;8199;51.310;9.466;2024-01-11T01:52:17;23.80;41.60
14138;DHT22;8199;51.310;9.466;2024-01-11T01:54:43;23.80;41.00
14138;DHT22;8199;51.310;9.466;2024-01-11T01:57:10;23.80;41.10
14138;DHT22;8199;51.310;9.466;2024-01-11T01:59:37;23.80;41.10
14138;DHT22;8199;51.310;9.466;2024-01-11T02:02:04;23.80;41.10
14138;DHT22;8199;51.310;9.466;2024-01-11T02:04:30;23.90;41.10
14138;DHT22;8199;51.310;9.466;2024-01-11T02:06:56;23.80;41.00
14138;DHT22;8199;51.310;9.466;2024-01-11T02:09:24;23.80;41.00
14138;DHT22;8199;51.310;9.466;2024-01-11T02:11:52;23.80;41.00
14138;DHT22;8199;51.310;9.466;2024-01-11T02:14:19;23.80;41.00
14138;DHT22;8199;51.310;9.466;2024-01-11T02:16:45;23.80;41.10
14138;DHT22;8199;51.310;9.466;2024-01-11T02:19:13;23.80;41.10
14138;DHT22;8199;51.310;9.466;2024-01-11T02:21:44;23.80;41.20
14138;DHT22;8199;51.310;9.466;2024-01-11T02:24:11;23.80;41.20
14138;DHT22;8199;51.310;9.466;2024-01-11T02:26:37;23.80;41.20
14138;DHT22;8199;51.310;9.466;2024-01-11T02:29:22;23.80;41.10
14138;DHT22;8199;51.310;9.466;2024-01-11T02:31:48;23.80;41.20
14138;DHT22;8199;51.310;9.466;2024-01-11T02:34:13;23.90;41.20
14138;DHT22;8199;51.310;9.466;2024-01-11T02:36:39;23.80;41.30
14138;DHT22;8199;51.310;9.466;2024-01-11T02:39:05;23.80;41.30
14138;DHT22;8199;51.310;9.466;2024-01-11T02:41:32;23.80;41.40
14138;DHT22;8199;51.310;9.466;2024-01-11T02:43:58;23.60;41.40
14138;DHT22;8199;51.310;9.466;2024-01-11T02:46:24;23.70;41.50
14138;DHT22;8199;51.310;9.466;2024-01-11T02:48:49;23.70;41.60
14138;DHT22;8199;51.310;9.466;2024-01-11T02:51:15;23.70;41.50
14138;DHT22;8199;51.310;9.466;2024-01-11T02:53:41;23.70;41.50
14138;DHT22;8199;51.310;9.466;2024-01-11T02:56:06;23.70;41.50
14138;DHT22;8199;51.310;9.466;2024-01-11T02:58:32;23.70;41.90
14138;DHT22;8199;51.310;9.466;2024-01-11T03:00:57;23.80;41.40
14138;DHT22;8199;51.310;9.466;2024-01-11T03:03:23;23.80;41.40
14138;DHT22;8199;51.310;9.466;2024-01-11T03:05:48;23.80;41.40
14138;DHT22;8199;51.310;9.466;2024-01-11T03:08:14;23.80;41.30
14138;DHT22;8199;51.310;9.466;2024-01-11T03:10:39;23.80;41.30
14138;DHT22;8199;51.310;9.466;2024-01-11T03:13:06;23.80;41.30
14138;DHT22;8199;51.310;9.466;2024-01-11T03:15:32;23.80;41.20
14138;DHT22;8199;51.310;9.466;2024-01-11T03:17:58;23.70;41.20
14138;DHT22;8199;51.310;9.466;2024-01-11T03:20:24;23.80;41.80
14138;DHT22;8199;51.310;9.466;2024-01-11T03:22:51;23.80;41.20
14138;DHT22;8199;51.310;9.466;2024-01-11T03:25:17;23.80;41.20
14138;DHT22;8199;51.310;9.466;2024-01-11T03:27:43;23.80;41.30
14138;DHT22;8199;51.310;9.466;2024-01-11T03:30:09;23.80;41.30
14138;DHT22;8199;51.310;9.466;2024-01-11T03:32:34;23.70;41.20
14138;DHT22;8199;51.310;9.466;2024-01-11T03:35:00;23.70;41.20
14138;DHT22;8199;51.310;9.466;2024-01-11T03:37:26;23.80;41.30
14138;DHT22;8199;51.310;9.466;2024-01-11T03:39:51;23.80;41.30
14138;DHT22;8199;51.310;9.466;2024-01-11T03:42:17;23.80;41.30
14138;DHT22;8199;51.310;9.466;2024-01-11T03:44:42;23.70;41.40
14138;DHT22;8199;51.310;9.466;2024-01-11T03:47:08;23.70;41.60
14138;DHT22;8199;51.310;9.466;2024-01-11T03:49:34;23.70;41.50
14138;DHT22;8199;51.310;9.466;2024-01-11T03:51:59;23.60;41.60
14138;DHT22;8199;51.310;9.466;2024-01-11T03:54:25;23.70;41.60
14138;DHT22;8199;51.310;9.466;2024-01-11T03:56:50;23.70;41.60
14138;DHT22;8199;51.310;9.466;2024-01-11T03:59:16;23.70;41.50
14138;DHT22;8199;51.310;9.466;2024-01-11T04:01:42;23.70;41.60
14138;DHT22;8199;51.310;9.466;2024-01-11T04:04:08;23.70;41.50
14138;DHT22;8199;51.310;9.466;2024-01-11T04:06:34;23.70;41.40
14138;DHT22;8199;51.310;9.466;2024-01-11T04:09:00;23.80;41.40
14138;DHT22;8199;51.310;9.466;2024-01-11T04:11:29;23.80;41.40
14138;DHT22;8199;51.310;9.466;2024-01-11T04:13:55;23.80;41.30
14138;DHT22;8199;51.310;9.466;2024-01-11T04:16:21;23.70;41.40
14138;DHT22;8199;51.310;9.466;2024-01-11T04:18:46;23.70;41.40
14138;DHT22;8199;51.310;9.466;2024-01-11T04:21:23;23.70;41.50
14138;DHT22;8199;51.310;9.466;2024-01-11T04:23:48;23.70;41.50
14138;DHT22;8199;51.310;9.466;2024-01-11T04:26:14;23.70;41.40
14138;DHT22;8199;51.310;9.466;2024-01-11T04:28:40;23.70;41.40
14138;DHT22;8199;51.310;9.466;2024-01-11T04:31:08;23.70;41.30
14138;DHT22;8199;51.310;9.466;2024-01-11T04:33:33;23.70;41.50
14138;DHT22;8199;51.310;9.466;2024-01-11T04:35:59;23.60;41.50
14138;DHT22;8199;51.310;9.466;2024-01-11T04:38:25;23.60;41.50
14138;DHT22;8199;51.310;9.466;2024-01-11T04:40:50;23.60;41.60
14138;DHT22;8199;51.310;9.466;2024-01-11T04:43:16;23.60;41.70
14138;DHT22;8199;51.310;9.466;2024-01-11T04:45:41;23.60;41.60
14138;DHT22;8199;51.310;9.466;2024-01-11T04:48:07;23.60;41.70
14138;DHT22;8199;51.310;9.466;2024-01-11T04:50:32;23.70;41.60
14138;DHT22;8199;51.310;9.466;2024-01-11T04:52:58;23.70;41.60
14138;DHT22;8199;51.310;9.466;2024-01-11T04:55:23;23.70;41.50
14138;DHT22;8199;51.310;9.466;2024-01-11T04:57:49;23.80;41.50
14138;DHT22;8199;51.310;9.466;2024-01-11T05:00:15;23.80;41.50
14138;DHT22;8199;51.310;9.466;2024-01-11T05:02:40;23.70;41.40
14138;DHT22;8199;51.310;9.466;2024-01-11T05:05:06;23.80;41.40
14138;DHT22;8199;51.310;9.466;2024-01-11T05:07:32;23.80;41.30
14138;DHT22;8199;51.310;9.466;2024-01-11T05:09:57;23.80;41.30
14138;DHT22;8199;51.310;9.466;2024-01-11T05:12:23;23.80;41.30
14138;DHT22;8199;51.310;9.466;2024-01-11T05:14:48;23.80;41.40
14138;DHT22;8199;51.310;9.466;2024-01-11T05:17:14;23.70;41.40
14138;DHT22;8199;51.310;9.466;2024-01-11T05:19:40;23.70;41.40
14138;DHT22;8199;51.310;9.466;2024-01-11T05:22:05;23.70;41.40
14138;DHT22;8199;51.310;9.466;2024-01-11T05:24:31;23.70;41.40
14138;DHT22;8199;51.310;9.466;2024-01-11T05:26:56;23.80;41.30
14138;DHT22;8199;51.310;9.466;2024-01-11T05:29:23;23.80;41.30
14138;DHT22;8199;51.310;9.466;2024-01-11T05:31:48;23.80;41.50
14138;DHT22;8199;51.310;9.466;2024-01-11T05:34:14;23.80;41.40
14138;DHT22;8199;51.310;9.466;2024-01-11T05:36:39;23.80;41.50
14138;DHT22;8199;51.310;9.466;2024-01-11T05:39:05;23.80;41.70
14138;DHT22;8199;51.310;9.466;2024-01-11T05:41:31;23.90;41.50
14138;DHT22;8199;51.310;9.466;2024-01-11T05:43:56;23.80;41.40
14138;DHT22;8199;51.310;9.466;2024-01-11T05:46:22;23.80;41.40
14138;DHT22;8199;51.310;9.466;2024-01-11T05:48:48;23.70;41.60
14138;DHT22;8199;51.310;9.466;2024-01-11T05:51:13;23.70;41.60
14138;DHT22;8199;51.310;9.466;2024-01-11T05:53:39;23.70;41.70
14138;DHT22;8199;51.310;9.466;2024-01-11T05:56:08;23.70;41.80
14138;DHT22;8199;51.310;9.466;2024-01-11T05:58:35;23.80;41.80
14138;DHT22;8199;51.310;9.466;2024-01-11T06:01:02;23.80;41.70
14138;DHT22;8199;51.310;9.466;2024-01-11T06:03:28;23.80;41.60
14138;DHT22;8199;51.310;9.466;2024-01-11T06:05:53;23.80;41.70
14138;DHT22;8199;51.310;9.466;2024-01-11T06:08:19;23.80;41.70
14138;DHT22;8199;51.310;9.466;2024-01-11T06:10:44;23.80;41.70
14138;DHT22;8199;51.310;9.466;2024-01-11T06:13:10;23.80;41.70
14138;DHT22;8199;51.310;9.466;2024-01-11T06:15:35;23.80;41.70
14138;DHT22;8199;51.310;9.466;2024-01-11T06:18:01;23.80;41.70
14138;DHT22;8199;51.310;9.466;2024-01-11T06:20:26;23.80;41.70
14138;DHT22;8199;51.310;9.466;2024-01-11T06:22:52;23.80;41.70
14138;DHT22;8199;51.310;9.466;2024-01-11T06:25:18;23.70;42.20
14138;DHT22;8199;51.310;9.466;2024-01-11T06:27:44;23.70;41.70
14138;DHT22;8199;51.310;9.466;2024-01-11T06:30:10;23.80;41.70
14138;DHT22;8199;51.310;9.466;2024-01-11T06:32:35;23.80;41.60
14138;DHT22;8199;51.310;9.466;2024-01-11T06:35:01;23.80;41.60
14138;DHT22;8199;51.310;9.466;2024-01-11T06:37:27;23.80;41.70
14138;DHT22;8199;51.310;9.466;2024-01-11T06:39:53;23.70;41.60
14138;DHT22;8199;51.310;9.466;2024-01-11T06:42:19;23.70;41.70
14138;DHT22;8199;51.310;9.466;2024-01-11T06:44:44;23.80;41.70
14138;DHT22;8199;51.310;9.466;2024-01-11T06:47:10;23.70;41.60
14138;DHT22;8199;51.310;9.466;2024-01-11T06:49:38;23.70;41.60
14138;DHT22;8199;51.310;9.466;2024-01-11T06:52:05;23.70;41.60
14138;DHT22;8199;51.310;9.466;2024-01-11T06:54:30;23.70;41.60
14138;DHT22;8199;51.310;9.466;2024-01-11T06:56:57;23.70;41.40
14138;DHT22;8199;51.310;9.466;2024-01-11T06:59:23;23.70;41.40
14138;DHT22;8199;51.310;9.466;2024-01-11T07:01:48;23.70;41.50
14138;DHT22;8199;51.310;9.466;2024-01-11T07:04:14;23.80;41.50
14138;DHT22;8199;51.310;9.466;2024-01-11T07:06:40;23.70;42.00
14138;DHT22;8199;51.310;9.466;2024-01-11T07:09:06;23.70;41.50
14138;DHT22;8199;51.310;9.466;2024-01-11T07:11:31;23.70;41.50
14138;DHT22;8199;51.310;9.466;2024-01-11T07:13:58;23.70;41.50
14138;DHT22;8199;51.310;9.466;2024-01-11T07:16:23;23.80;41.50
14138;DHT22;8199;51.310;9.466;2024-01-11T07:18:49;23.80;41.50
14138;DHT22;8199;51.310;9.466;2024-01-11T07:21:23;23.80;41.50
14138;DHT22;8199;51.310;9.466;2024-01-11T07:24:04;23.70;41.50
14138;DHT22;8199;51.310;9.466;2024-01-11T07:26:30;23.80;41.50
14138;DHT22;8199;51.310;9.466;2024-01-11T07:28:55;23.80;41.50
14138;DHT22;8199;51.310;9.466;2024-01-11T07:31:21;23.80;41.50
14138;DHT22;8199;51.310;9.466;2024-01-11T07:33:47;23.80;41.50
14138;DHT22;8199;51.310;9.466;2024-01-11T07:36:12;23.80;42.00
14138;DHT22;8199;51.310;9.466;2024-01-11T07:38:39;23.70;41.50
14138;DHT22;8199;51.310;9.466;2024-01-11T07:41:04;23.70;41.50
14138;DHT22;8199;51.310;9.466;2024-01-11T07:43:30;23.70;41.50
14138;DHT22;8199;51.310;9.466;2024-01-11T07:45:57;23.70;41.50
14138;DHT22;8199;51.310;9.466;2024-01-11T07:48:23;23.70;41.40
14138;DHT22;8199;51.310;9.466;2024-01-11T07:50:49;23.70;41.30
14138;DHT22;8199;51.310;9.466;2024-01-11T07:53:15;23.70;41.30
14138;DHT22;8199;51.310;9.466;2024-01-11T07:55:41;23.70;41.40
14138;DHT22;8199;51.310;9.466;2024-01-11T07:58:07;23.70;41.40
14138;DHT22;8199;51.310;9.466;2024-01-11T08:00:32;23.70;41.40
14138;DHT22;8199;51.310;9.466;2024-01-11T08:02:59;23.70;41.40
14138;DHT22;8199;51.310;9.466;2024-01-11T08:05:24;23.60;41.30
14138;DHT22;8199;51.310;9.466;2024-01-11T08:07:50;23.60;41.40
14138;DHT22;8199;51.310;9.466;2024-01-11T08:10:16;23.70;41.40
14138;DHT22;8199;51.310;9.466;2024-01-11T08:12:41;23.70;41.50
14138;DHT22;8199;51.310;9.466;2024-01-11T08:15:07;23.80;41.30
14138;DHT22;8199;51.310;9.466;2024-01-11T08:17:38;23.70;41.50
14138;DHT22;8199;51.310;9.466;2024-01-11T08:20:05;23.60;41.60
14138;DHT22;8199;51.310;9.466;2024-01-11T08:22:33;23.60;41.50
14138;DHT22;8199;51.310;9.466;2024-01-11T08:25:02;23.60;41.50
14138;DHT22;8199;51.310;9.466;2024-01-11T08:27:30;23.60;41.60
14138;DHT22;8199;51.310;9.466;2024-01-11T08:29:56;23.60;41.50
14138;DHT22;8199;51.310;9.466;2024-01-11T08:32:22;23.60;41.50
14138;DHT22;8199;51.310;9.466;2024-01-11T08:34:48;23.60;41.50
14138;DHT22;8199;51.310;9.466;2024-01-11T08:37:13;23.70;41.50
14138;DHT22;8199;51.310;9.466;2024-01-11T08:39:40;23.70;41.50
14138;DHT22;8199;51.310;9.466;2024-01-11T08:42:05;23.70;41.50
14138;DHT22;8199;51.310;9.466;2024-01-11T08:44:31;23.70;41.50
14138;DHT22;8199;51.310;9.466;2024-01-11T08:46:57;23.70;41.50
14138;DHT22;8199;51.310;9.466;2024-01-11T08:49:24;23.80;41.60
14138;DHT22;8199;51.310;9.466;2024-01-11T08:51:50;23.90;41.40
14138;DHT22;8199;51.310;9.466;2024-01-11T08:54:15;23.90;41.20
14138;DHT22;8199;51.310;9.466;2024-01-11T08:56:42;24.00;40.70
14138;DHT22;8199;51.310;9.466;2024-01-11T08:59:08;24.20;40.50
14138;DHT22;8199;51.310;9.466;2024-01-11T09:01:36;24.30;40.20
14138;DHT22;8199;51.310;9.466;2024-01-11T09:04:02;24.30;40.00
14138;DHT22;8199;51.310;9.466;2024-01-11T09:06:29;24.50;39.70
14138;DHT22;8199;51.310;9.466;2024-01-11T09:08:55;25.00;39.10
14138;DHT22;8199;51.310;9.466;2024-01-11T09:11:20;25.50;38.50
14138;DHT22;8199;51.310;9.466;2024-01-11T09:13:46;25.70;38.20
14138;DHT22;8199;51.310;9.466;2024-01-11T09:16:15;25.80;38.20
14138;DHT22;8199;51.310;9.466;2024-01-11T09:18:41;25.80;38.00
14138;DHT22;8199;51.310;9.466;2024-01-11T09:21:07;25.90;38.00
14138;DHT22;8199;51.310;9.466;2024-01-11T09:23:34;25.90;37.90
14138;DHT22;8199;51.310;9.466;2024-01-11T09:26:00;25.50;38.10
14138;DHT22;8199;51.310;9.466;2024-01-11T09:28:25;25.00;39.10
14138;DHT22;8199;51.310;9.466;2024-01-11T09:30:51;24.80;38.90
14138;DHT22;8199;51.310;9.466;2024-01-11T09:33:16;24.50;39.10
14138;DHT22;8199;51.310;9.466;2024-01-11T09:35:42;24.40;39.60
14138;DHT22;8199;51.310;9.466;2024-01-11T09:38:08;24.30;39.70
14138;DHT22;8199;51.310;9.466;2024-01-11T09:40:33;24.20;39.80
14138;DHT22;8199;51.310;9.466;2024-01-11T09:43:01;24.10;39.80
14138;DHT22;8199;51.310;9.466;2024-01-11T09:45:29;24.10;39.80
14138;DHT22;8199;51.310;9.466;2024-01-11T09:47:55;24.10;39.90
14138;DHT22;8199;51.310;9.466;2024-01-11T09:50:21;24.10;39.90
14138;DHT22;8199;51.310;9.466;2024-01-11T09:52:49;24.10;40.00
14138;DHT22;8199;51.310;9.466;2024-01-11T09:55:15;23.90;39.80
14138;DHT22;8199;51.310;9.466;2024-01-11T09:57:45;23.90;39.90
14138;DHT22;8199;51.310;9.466;2024-01-11T10:00:16;23.80;40.10
14138;DHT22;8199;51.310;9.466;2024-01-11T10:02:44;23.70;40.70
14138;DHT22;8199;51.310;9.466;2024-01-11T10:05:10;23.70;40.20
14138;DHT22;8199;51.310;9.466;2024-01-11T10:07:37;23.70;40.40
14138;DHT22;8199;51.310;9.466;2024-01-11T10:10:03;23.80;40.40
14138;DHT22;8199;51.310;9.466;2024-01-11T10:12:29;23.80;40.40
14138;DHT22;8199;51.310;9.466;2024-01-11T10:14:54;23.80;40.40
14138;DHT22;8199;51.310;9.466;2024-01-11T10:17:20;23.80;40.40
14138;DHT22;8199;51.310;9.466;2024-01-11T10:19:46;23.90;40.40
14138;DHT22;8199;51.310;9.466;2024-01-11T10:22:12;23.90;40.40
14138;DHT22;8199;51.310;9.466;2024-01-11T10:24:42;23.90;40.40
14138;DHT22;8199;51.310;9.466;2024-01-11T10:27:11;23.90;40.40
14138;DHT22;8199;51.310;9.466;2024-01-11T10:29:37;23.90;40.40
14138;DHT22;8199;51.310;9.466;2024-01-11T10:32:06;23.90;40.40
14138;DHT22;8199;51.310;9.466;2024-01-11T10:34:32;24.00;40.50
14138;DHT22;8199;51.310;9.466;2024-01-11T10:36:57;24.00;40.50
14138;DHT22;8199;51.310;9.466;2024-01-11T10:39:26;24.00;40.50
14138;DHT22;8199;51.310;9.466;2024-01-11T10:42:06;24.00;40.70
14138;DHT22;8199;51.310;9.466;2024-01-11T10:44:35;23.90;41.00
14138;DHT22;8199;51.310;9.466;2024-01-11T10:47:07;23.90;41.10
14138;DHT22;8199;51.310;9.466;2024-01-11T10:49:37;23.90;41.20
14138;DHT22;8199;51.310;9.466;2024-01-11T10:52:05;23.90;41.30
14138;DHT22;8199;51.310;9.466;2024-01-11T10:54:34;23.90;41.30
14138;DHT22;8199;51.310;9.466;2024-01-11T10:57:00;24.00;41.40
14138;DHT22;8199;51.310;9.466;2024-01-11T10:59:29;24.00;41.30
14138;DHT22;8199;51.310;9.466;2024-01-11T11:01:58;24.00;41.40
14138;DHT22;8199;51.310;9.466;2024-01-11T11:04:27;24.00;41.30
14138;DHT22;8199;51.310;9.466;2024-01-11T11:06:55;24.10;41.40
14138;DHT22;8199;51.310;9.466;2024-01-11T11:09:22;24.10;41.30
14138;DHT22;8199;51.310;9.466;2024-01-11T11:11:49;24.10;41.20
14138;DHT22;8199;51.310;9.466;2024-01-11T11:14:15;24.10;41.30
14138;DHT22;8199;51.310;9.466;2024-01-11T11:16:41;24.20;41.30
14138;DHT22;8199;51.310;9.466;2024-01-11T11:19:08;24.10;41.20
14138;DHT22;8199;51.310;9.466;2024-01-11T11:21:42;24.20;41.20
14138;DHT22;8199;51.310;9.466;2024-01-11T11:24:08;24.10;41.20
14138;DHT22;8199;51.310;9.466;2024-01-11T11:26:35;24.10;41.30
14138;DHT22;8199;51.310;9.466;2024-01-11T11:29:03;24.10;41.30
14138;DHT22;8199;51.310;9.466;2024-01-11T11:31:41;24.20;41.30
14138;DHT22;8199;51.310;9.466;2024-01-11T11:34:07;24.10;41.30
14138;DHT22;8199;51.310;9.466;2024-01-11T11:36:36;24.20;41.30
14138;DHT22;8199;51.310;9.466;2024-01-11T11:39:02;24.20;41.40
14138;DHT22;8199;51.310;9.466;2024-01-11T11:41:30;24.20;41.40
14138;DHT22;8199;51.310;9.466;2024-01-11T11:44:01;24.20;41.40
14138;DHT22;8199;51.310;9.466;2024-01-11T11:46:27;24.20;41.30
14138;DHT22;8199;51.310;9.466;2024-01-11T11:48:53;24.20;41.30
14138;DHT22;8199;51.310;9.466;2024-01-11T11:51:20;24.20;41.30
14138;DHT22;8199;51.310;9.466;2024-01-11T11:53:50;24.20;41.30
14138;DHT22;8199;51.310;9.466;2024-01-11T11:56:18;24.20;41.40
14138;DHT22;8199;51.310;9.466;2024-01-11T11:58:45;24.20;41.40
14138;DHT22;8199;51.310;9.466;2024-01-11T12:01:11;24.20;41.30
14138;DHT22;8199;51.310;9.466;2024-01-11T12:03:38;24.20;41.30
14138;DHT22;8199;51.310;9.466;2024-01-11T12:06:06;24.20;41.30
14138;DHT22;8199;51.310;9.466;2024-01-11T12:08:33;24.20;41.20
14138;DHT22;8199;51.310;9.466;2024-01-11T12:10:58;24.20;41.30
14138;DHT22;8199;51.310;9.466;2024-01-11T12:13:25;24.20;41.20
14138;DHT22;8199;51.310;9.466;2024-01-11T12:15:51;24.20;41.20
14138;DHT22;8199;51.310;9.466;2024-01-11T12:18:17;24.20;41.30
14138;DHT22;8199;51.310;9.466;2024-01-11T12:20:42;24.20;41.40
14138;DHT22;8199;51.310;9.466;2024-01-11T12:23:08;24.10;41.40
14138;DHT22;8199;51.310;9.466;2024-01-11T12:25:34;24.20;41.40
14138;DHT22;8199;51.310;9.466;2024-01-11T12:28:00;24.20;41.40
14138;DHT22;8199;51.310;9.466;2024-01-11T12:30:26;24.20;41.40
14138;DHT22;8199;51.310;9.466;2024-01-11T12:32:53;24.20;41.40
14138;DHT22;8199;51.310;9.466;2024-01-11T12:35:19;24.20;41.40
14138;DHT22;8199;51.310;9.466;2024-01-11T12:37:54;24.20;41.50
14138;DHT22;8199;51.310;9.466;2024-01-11T12:40:21;24.20;41.50
14138;DHT22;8199;51.310;9.466;2024-01-11T12:42:47;24.20;42.00
14138;DHT22;8199;51.310;9.466;2024-01-11T12:45:15;24.10;41.60
14138;DHT22;8199;51.310;9.466;2024-01-11T12:47:40;24.10;41.70
14138;DHT22;8199;51.310;9.466;2024-01-11T12:50:06;24.10;41.70
14138;DHT22;8199;51.310;9.466;2024-01-11T12:52:33;24.20;41.70
14138;DHT22;8199;51.310;9.466;2024-01-11T12:54:58;24.20;41.70
14138;DHT22;8199;51.310;9.466;2024-01-11T12:57:25;24.20;41.70
14138;DHT22;8199;51.310;9.466;2024-01-11T12:59:51;24.20;41.50
14138;DHT22;8199;51.310;9.466;2024-01-11T13:02:18;24.20;41.40
14138;DHT22;8199;51.310;9.466;2024-01-11T13:04:43;24.30;41.30
14138;DHT22;8199;51.310;9.466;2024-01-11T13:07:11;24.40;41.20
14138;DHT22;8199;51.310;9.466;2024-01-11T13:09:38;24.30;41.30
14138;DHT22;8199;51.310;9.466;2024-01-11T13:12:04;24.30;41.20
14138;DHT22;8199;51.310;9.466;2024-01-11T13:14:30;24.40;41.10
14138;DHT22;8199;51.310;9.466;2024-01-11T13:16:55;24.40;41.10
14138;DHT22;8199;51.310;9.466;2024-01-11T13:19:21;24.30;41.10
14138;DHT22;8199;51.310;9.466;2024-01-11T13:21:47;24.30;41.10
14138;DHT22;8199;51.310;9.466;2024-01-11T13:24:12;24.50;40.90
14138;DHT22;8199;51.310;9.466;2024-01-11T13:26:38;24.50;40.80
14138;DHT22;8199;51.310;9.466;2024-01-11T13:29:06;24.70;40.60
14138;DHT22;8199;51.310;9.466;2024-01-11T13:31:32;24.70;40.60
14138;DHT22;8199;51.310;9.466;2024-01-11T13:34:01;24.60;40.70
14138;DHT22;8199;51.310;9.466;2024-01-11T13:36:26;24.60;40.70
14138;DHT22;8199;51.310;9.466;2024-01-11T13:38:52;24.70;40.70
14138;DHT22;8199;51.310;9.466;2024-01-11T13:41:18;24.70;40.70
14138;DHT22;8199;51.310;9.466;2024-01-11T13:43:44;24.60;40.80
14138;DHT22;8199;51.310;9.466;2024-01-11T13:46:10;24.60;40.90
14138;DHT22;8199;51.310;9.466;2024-01-11T13:48:38;24.50;41.00
14138;DHT22;8199;51.310;9.466;2024-01-11T13:51:04;24.50;41.00
14138;DHT22;8199;51.310;9.466;2024-01-11T13:53:29;24.60;40.90
14138;DHT22;8199;51.310;9.466;2024-01-11T13:55:56;24.50;41.00
14138;DHT22;8199;51.310;9.466;2024-01-11T13:58:22;24.80;40.80
14138;DHT22;8199;51.310;9.466;2024-01-11T14:00:47;24.70;40.80
14138;DHT22;8199;51.310;9.466;2024-01-11T14:03:13;24.70;40.90
14138;DHT22;8199;51.310;9.466;2024-01-11T14:05:38;24.70;40.90
14138;DHT22;8199;51.310;9.466;2024-01-11T14:08:04;24.70;40.90
14138;DHT22;8199;51.310;9.466;2024-01-11T14:10:34;24.80;40.80
14138;DHT22;8199;51.310;9.466;2024-01-11T14:13:00;24.70;40.80
14138;DHT22;8199;51.310;9.466;2024-01-11T14:15:27;24.90;40.70
14138;DHT22;8199;51.310;9.466;2024-01-11T14:17:52;24.80;41.30
14138;DHT22;8199;51.310;9.466;2024-01-11T14:20:18;24.70;40.80
14138;DHT22;8199;51.310;9.466;2024-01-11T14:22:45;24.80;40.80
14138;DHT22;8199;51.310;9.466;2024-01-11T14:25:21;24.70;40.90
14138;DHT22;8199;51.310;9.466;2024-01-11T14:27:49;24.60;40.90
14138;DHT22;8199;51.310;9.466;2024-01-11T14:30:15;24.60;40.90
14138;DHT22;8199;51.310;9.466;2024-01-11T14:32:41;24.60;41.10
14138;DHT22;8199;51.310;9.466;2024-01-11T14:35:07;24.60;41.00
14138;DHT22;8199;51.310;9.466;2024-01-11T14:37:34;24.60;41.00
14138;DHT22;8199;51.310;9.466;2024-01-11T14:40:00;24.50;41.00
14138;DHT22;8199;51.310;9.466;2024-01-11T14:42:26;24.50;41.10
14138;DHT22;8199;51.310;9.466;2024-01-11T14:44:52;24.70;41.00
14138;DHT22;8199;51.310;9.466;2024-01-11T14:47:18;24.60;41.00
14138;DHT22;8199;51.310;9.466;2024-01-11T14:49:45;24.60;41.00
14138;DHT22;8199;51.310;9.466;2024-01-11T14:52:10;24.60;41.00
14138;DHT22;8199;51.310;9.466;2024-01-11T14:54:36;24.60;41.10
14138;DHT22;8199;51.310;9.466;2024-01-11T14:57:01;24.60;41.10
14138;DHT22;8199;51.310;9.466;2024-01-11T14:59:27;24.60;41.00
14138;DHT22;8199;51.310;9.466;2024-01-11T15:01:53;24.60;41.00
14138;DHT22;8199;51.310;9.466;2024-01-11T15:04:19;24.70;41.00
14138;DHT22;8199;51.310;9.466;2024-01-11T15:06:44;24.70;41.00
14138;DHT22;8199;51.310;9.466;2024-01-11T15:09:10;24.70;40.90
14138;DHT22;8199;51.310;9.466;2024-01-11T15:11:38;24.70;40.90
14138;DHT22;8199;51.310;9.466;2024-01-11T15:14:05;24.60;41.00
14138;DHT22;8199;51.310;9.466;2024-01-11T15:16:31;24.50;41.10
14138;DHT22;8199;51.310;9.466;2024-01-11T15:18:57;24.50;41.30
14138;DHT22;8199;51.310;9.466;2024-01-11T15:21:22;24.40;41.20
14138;DHT22;8199;51.310;9.466;2024-01-11T15:23:48;24.50;41.30
14138;DHT22;8199;51.310;9.466;2024-01-11T15:26:13;24.50;41.10
14138;DHT22;8199;51.310;9.466;2024-01-11T15:28:39;24.50;41.00
14138;DHT22;8199;51.310;9.466;2024-01-11T15:31:05;24.50;41.00
14138;DHT22;8199;51.310;9.466;2024-01-11T15:33:31;24.50;41.10
14138;DHT22;8199;51.310;9.466;2024-01-11T15:35:57;24.40;41.20
14138;DHT22;8199;51.310;9.466;2024-01-11T15:38:22;24.50;41.20